Cheney, KS

8:27 AM CDT on April 25, 2015 (GMT -0500)
Col Jabara | | Change Station
CLOSE
Current Station
Airport
Location: Wichita Jabara,
Elevation: 1421 ft
Nearby Weather Stations

Elev 1421 ft 37.75 °N, 97.22 °W | Updated 33 minutes ago

Partly Cloudy
Partly Cloudy
57 °F
Feels Like 57 °F
N
10
Wind Variable Wind from West

Today
High -- | Low -- °F
--% Chance of Precip.
Yesterday
High -- | Low -- °F
Precip. -- in
6:43 AM 8:15 PM
Waxing Crescent, 46% visible
Pressure 29.52 in
Visibility 10.0 miles
Clouds Clear
Dew Point 52 °F
Humidity 83%
Rainfall 0.01 in
Snow Depth Not available.
UV 1 out of 12
Pollen 10.30 out of 12
Air Quality Not available.
Flu Activity Sporadic
METAR KAAO 251254Z AUTO 27009KT 10SM CLR 14/11 A2954 RMK AO2 SLP996 T01390111 $

More Conditions Fewer Conditions

Pressure 29.52 in
Visibility 10.0 miles
Clouds Clear
Dew Point 52 °F
Humidity 83%
Rainfall 0.01 in
Snow Depth Not available.
UV 1 out of 12
Pollen 10.30 out of 12
Air Quality Not available.
Flu Activity Sporadic
METAR KAAO 251254Z AUTO 27009KT 10SM CLR 14/11 A2954 RMK AO2 SLP996 T01390111 $

More Conditions Fewer Conditions

10-Day Weather Forecast

Almanac

Astronomy

Apr. 25, 2015 Rise Set
Actual Time
Civil Twilight
Nautical Twilight
Astronomical Twilight
Moon
Length of Visible Light
Length of Day
Tomorrow will be .
, % of the Moon is Illuminated

Today's Extremes

State Highs State Lows

Community

WunderPhotos

Upload Photos

1,816,663 photos uploaded!

WunderBlogs® & News

Nearby

Air Quality

  Air Quality AQ Index Pollutant
Not available.

Snow Depth

Station Depth Elevation

Earthquake Activity

City Distance Mag. Time & Date
Minimum magnitude displayed is 2.5.

Coastal Water Temperatures

Place Temperature

Stations

Nearby Weather Stations

Station Location Temp. Windchill Dew Point Humidity Wind Precip. Elev Updated Type